sensor_id;sensor_type;location;lat;lon;timestamp;temperature;humidity
16521;DHT22;8373;48.110;11.522;2023-05-13T00:01:39;12.80;86.40
16521;DHT22;8373;48.110;11.522;2023-05-13T00:04:07;12.80;86.60
16521;DHT22;8373;48.110;11.522;2023-05-13T00:06:34;12.80;86.90
16521;DHT22;8373;48.110;11.522;2023-05-13T00:09:02;12.80;86.70
16521;DHT22;8373;48.110;11.522;2023-05-13T00:11:29;12.80;86.70
16521;DHT22;8373;48.110;11.522;2023-05-13T00:13:57;12.70;86.70
16521;DHT22;8373;48.110;11.522;2023-05-13T00:16:24;12.60;87.30
16521;DHT22;8373;48.110;11.522;2023-05-13T00:18:53;12.70;87.70
16521;DHT22;8373;48.110;11.522;2023-05-13T00:21:20;12.70;87.40
16521;DHT22;8373;48.110;11.522;2023-05-13T00:23:48;12.70;87.30
16521;DHT22;8373;48.110;11.522;2023-05-13T00:26:14;12.70;87.50
16521;DHT22;8373;48.110;11.522;2023-05-13T00:28:41;12.70;87.80
16521;DHT22;8373;48.110;11.522;2023-05-13T00:31:10;12.70;88.00
16521;DHT22;8373;48.110;11.522;2023-05-13T00:33:37;12.80;88.10
16521;DHT22;8373;48.110;11.522;2023-05-13T00:36:04;12.80;87.80
16521;DHT22;8373;48.110;11.522;2023-05-13T00:38:32;12.80;87.90
16521;DHT22;8373;48.110;11.522;2023-05-13T00:40:59;12.90;87.80
16521;DHT22;8373;48.110;11.522;2023-05-13T00:43:26;12.90;87.40
16521;DHT22;8373;48.110;11.522;2023-05-13T00:45:53;12.90;87.50
16521;DHT22;8373;48.110;11.522;2023-05-13T00:48:21;12.90;87.20
16521;DHT22;8373;48.110;11.522;2023-05-13T00:50:48;12.90;87.30
16521;DHT22;8373;48.110;11.522;2023-05-13T00:53:16;12.90;87.30
16521;DHT22;8373;48.110;11.522;2023-05-13T00:55:44;12.80;87.10
16521;DHT22;8373;48.110;11.522;2023-05-13T00:58:11;12.80;87.10
16521;DHT22;8373;48.110;11.522;2023-05-13T01:00:41;12.80;87.20
16521;DHT22;8373;48.110;11.522;2023-05-13T01:03:15;12.80;87.50
16521;DHT22;8373;48.110;11.522;2023-05-13T01:05:52;12.80;87.50
16521;DHT22;8373;48.110;11.522;2023-05-13T01:08:28;12.80;87.80
16521;DHT22;8373;48.110;11.522;2023-05-13T01:11:01;12.70;87.60
16521;DHT22;8373;48.110;11.522;2023-05-13T01:13:34;12.70;88.50
16521;DHT22;8373;48.110;11.522;2023-05-13T01:16:08;12.70;87.90
16521;DHT22;8373;48.110;11.522;2023-05-13T01:18:40;12.60;88.10
16521;DHT22;8373;48.110;11.522;2023-05-13T01:21:11;12.60;88.40
16521;DHT22;8373;48.110;11.522;2023-05-13T01:23:39;12.60;89.50
16521;DHT22;8373;48.110;11.522;2023-05-13T01:26:06;12.60;88.60
16521;DHT22;8373;48.110;11.522;2023-05-13T01:28:33;12.60;88.60
16521;DHT22;8373;48.110;11.522;2023-05-13T01:31:00;12.60;88.70
16521;DHT22;8373;48.110;11.522;2023-05-13T01:33:28;12.60;88.60
16521;DHT22;8373;48.110;11.522;2023-05-13T01:35:55;12.50;88.70
16521;DHT22;8373;48.110;11.522;2023-05-13T01:38:23;12.50;88.90
16521;DHT22;8373;48.110;11.522;2023-05-13T01:40:53;12.50;89.20
16521;DHT22;8373;48.110;11.522;2023-05-13T01:43:21;12.50;89.30
16521;DHT22;8373;48.110;11.522;2023-05-13T01:45:48;12.50;89.50
16521;DHT22;8373;48.110;11.522;2023-05-13T01:48:16;12.50;89.70
16521;DHT22;8373;48.110;11.522;2023-05-13T01:50:44;12.50;89.70
16521;DHT22;8373;48.110;11.522;2023-05-13T01:53:12;12.50;89.70
16521;DHT22;8373;48.110;11.522;2023-05-13T01:55:38;12.50;89.80
16521;DHT22;8373;48.110;11.522;2023-05-13T01:58:07;12.50;90.00
16521;DHT22;8373;48.110;11.522;2023-05-13T02:00:34;12.50;89.90
16521;DHT22;8373;48.110;11.522;2023-05-13T02:03:01;12.50;89.70
16521;DHT22;8373;48.110;11.522;2023-05-13T02:05:27;12.40;89.70
16521;DHT22;8373;48.110;11.522;2023-05-13T02:07:56;12.40;89.90
16521;DHT22;8373;48.110;11.522;2023-05-13T02:10:23;12.40;90.00
16521;DHT22;8373;48.110;11.522;2023-05-13T02:12:49;12.30;90.10
16521;DHT22;8373;48.110;11.522;2023-05-13T02:15:18;12.30;90.20
16521;DHT22;8373;48.110;11.522;2023-05-13T02:17:45;12.30;90.40
16521;DHT22;8373;48.110;11.522;2023-05-13T02:20:12;12.30;90.30
16521;DHT22;8373;48.110;11.522;2023-05-13T02:22:39;12.30;90.30
16521;DHT22;8373;48.110;11.522;2023-05-13T02:25:07;12.30;90.40
16521;DHT22;8373;48.110;11.522;2023-05-13T02:27:34;12.30;90.50
16521;DHT22;8373;48.110;11.522;2023-05-13T02:30:01;12.30;90.60
16521;DHT22;8373;48.110;11.522;2023-05-13T02:32:29;12.30;90.60
16521;DHT22;8373;48.110;11.522;2023-05-13T02:34:56;12.30;90.70
16521;DHT22;8373;48.110;11.522;2023-05-13T02:37:23;12.20;90.70
16521;DHT22;8373;48.110;11.522;2023-05-13T02:39:50;12.20;90.80
16521;DHT22;8373;48.110;11.522;2023-05-13T02:42:17;12.20;90.80
16521;DHT22;8373;48.110;11.522;2023-05-13T02:44:45;12.10;90.90
16521;DHT22;8373;48.110;11.522;2023-05-13T02:47:13;12.10;91.10
16521;DHT22;8373;48.110;11.522;2023-05-13T02:49:41;12.10;91.30
16521;DHT22;8373;48.110;11.522;2023-05-13T02:52:08;12.10;91.30
16521;DHT22;8373;48.110;11.522;2023-05-13T02:54:35;12.10;91.40
16521;DHT22;8373;48.110;11.522;2023-05-13T02:57:02;12.10;91.50
16521;DHT22;8373;48.110;11.522;2023-05-13T02:59:28;12.10;91.50
16521;DHT22;8373;48.110;11.522;2023-05-13T03:01:56;12.10;91.50
16521;DHT22;8373;48.110;11.522;2023-05-13T03:04:23;12.10;91.50
16521;DHT22;8373;48.110;11.522;2023-05-13T03:06:51;12.10;91.60
16521;DHT22;8373;48.110;11.522;2023-05-13T03:09:18;12.10;91.70
16521;DHT22;8373;48.110;11.522;2023-05-13T03:11:45;12.20;91.80
16521;DHT22;8373;48.110;11.522;2023-05-13T03:14:12;12.20;91.80
16521;DHT22;8373;48.110;11.522;2023-05-13T03:16:39;12.20;91.80
16521;DHT22;8373;48.110;11.522;2023-05-13T03:19:06;12.20;91.80
16521;DHT22;8373;48.110;11.522;2023-05-13T03:21:33;12.20;91.80
16521;DHT22;8373;48.110;11.522;2023-05-13T03:24:01;12.10;91.80
16521;DHT22;8373;48.110;11.522;2023-05-13T03:26:28;12.10;91.70
16521;DHT22;8373;48.110;11.522;2023-05-13T03:28:55;12.10;91.80
16521;DHT22;8373;48.110;11.522;2023-05-13T03:31:21;12.00;91.70
16521;DHT22;8373;48.110;11.522;2023-05-13T03:33:48;12.10;92.00
16521;DHT22;8373;48.110;11.522;2023-05-13T03:36:15;12.10;92.10
16521;DHT22;8373;48.110;11.522;2023-05-13T03:38:42;12.20;92.20
16521;DHT22;8373;48.110;11.522;2023-05-13T03:41:10;12.20;92.20
16521;DHT22;8373;48.110;11.522;2023-05-13T03:43:37;12.20;92.20
16521;DHT22;8373;48.110;11.522;2023-05-13T03:46:04;12.20;92.20
16521;DHT22;8373;48.110;11.522;2023-05-13T03:48:31;12.30;92.20
16521;DHT22;8373;48.110;11.522;2023-05-13T03:50:58;12.30;92.20
16521;DHT22;8373;48.110;11.522;2023-05-13T03:53:25;12.30;92.20
16521;DHT22;8373;48.110;11.522;2023-05-13T03:55:52;12.40;92.10
16521;DHT22;8373;48.110;11.522;2023-05-13T03:58:20;12.40;92.00
16521;DHT22;8373;48.110;11.522;2023-05-13T04:00:47;12.40;91.90
16521;DHT22;8373;48.110;11.522;2023-05-13T04:03:15;12.40;91.70
16521;DHT22;8373;48.110;11.522;2023-05-13T04:05:43;12.40;91.60
16521;DHT22;8373;48.110;11.522;2023-05-13T04:08:10;12.40;91.50
16521;DHT22;8373;48.110;11.522;2023-05-13T04:10:37;12.30;91.40
16521;DHT22;8373;48.110;11.522;2023-05-13T04:13:04;12.30;91.50
16521;DHT22;8373;48.110;11.522;2023-05-13T04:15:32;12.30;91.70
16521;DHT22;8373;48.110;11.522;2023-05-13T04:17:59;12.30;91.80
16521;DHT22;8373;48.110;11.522;2023-05-13T04:20:26;12.30;91.80
16521;DHT22;8373;48.110;11.522;2023-05-13T04:22:53;12.30;91.70
16521;DHT22;8373;48.110;11.522;2023-05-13T04:25:20;12.30;91.70
16521;DHT22;8373;48.110;11.522;2023-05-13T04:27:47;12.30;91.70
16521;DHT22;8373;48.110;11.522;2023-05-13T04:30:15;12.30;91.80
16521;DHT22;8373;48.110;11.522;2023-05-13T04:32:43;12.30;92.00
16521;DHT22;8373;48.110;11.522;2023-05-13T04:35:10;12.30;92.20
16521;DHT22;8373;48.110;11.522;2023-05-13T04:37:37;12.30;92.20
16521;DHT22;8373;48.110;11.522;2023-05-13T04:40:05;12.30;92.10
16521;DHT22;8373;48.110;11.522;2023-05-13T04:42:32;12.30;92.10
16521;DHT22;8373;48.110;11.522;2023-05-13T04:44:59;12.30;92.10
16521;DHT22;8373;48.110;11.522;2023-05-13T04:47:26;12.30;92.20
16521;DHT22;8373;48.110;11.522;2023-05-13T04:49:55;12.30;92.30
16521;DHT22;8373;48.110;11.522;2023-05-13T04:52:21;12.30;92.20
16521;DHT22;8373;48.110;11.522;2023-05-13T04:54:49;12.30;92.30
16521;DHT22;8373;48.110;11.522;2023-05-13T04:57:16;12.30;92.40
16521;DHT22;8373;48.110;11.522;2023-05-13T04:59:42;12.30;92.40
16521;DHT22;8373;48.110;11.522;2023-05-13T05:02:09;12.40;92.40
16521;DHT22;8373;48.110;11.522;2023-05-13T05:04:36;12.40;92.20
16521;DHT22;8373;48.110;11.522;2023-05-13T05:07:05;12.40;92.20
16521;DHT22;8373;48.110;11.522;2023-05-13T05:09:31;12.40;92.10
16521;DHT22;8373;48.110;11.522;2023-05-13T05:11:58;12.30;91.80
16521;DHT22;8373;48.110;11.522;2023-05-13T05:14:25;12.30;92.00
16521;DHT22;8373;48.110;11.522;2023-05-13T05:16:52;12.30;92.10
16521;DHT22;8373;48.110;11.522;2023-05-13T05:19:19;12.20;92.30
16521;DHT22;8373;48.110;11.522;2023-05-13T05:21:48;12.20;92.30
16521;DHT22;8373;48.110;11.522;2023-05-13T05:24:17;12.20;92.50
16521;DHT22;8373;48.110;11.522;2023-05-13T05:26:44;12.20;92.40
16521;DHT22;8373;48.110;11.522;2023-05-13T05:29:11;12.10;92.40
16521;DHT22;8373;48.110;11.522;2023-05-13T05:31:37;12.10;92.60
16521;DHT22;8373;48.110;11.522;2023-05-13T05:34:04;12.10;92.70
16521;DHT22;8373;48.110;11.522;2023-05-13T05:36:31;12.10;92.70
16521;DHT22;8373;48.110;11.522;2023-05-13T05:38:58;12.10;92.60
16521;DHT22;8373;48.110;11.522;2023-05-13T05:41:26;12.10;92.70
16521;DHT22;8373;48.110;11.522;2023-05-13T05:43:53;12.10;92.80
16521;DHT22;8373;48.110;11.522;2023-05-13T05:46:20;12.10;92.90
16521;DHT22;8373;48.110;11.522;2023-05-13T05:48:48;12.00;92.90
16521;DHT22;8373;48.110;11.522;2023-05-13T05:51:15;12.10;93.00
16521;DHT22;8373;48.110;11.522;2023-05-13T05:53:42;12.10;93.10
16521;DHT22;8373;48.110;11.522;2023-05-13T05:56:09;12.10;93.00
16521;DHT22;8373;48.110;11.522;2023-05-13T05:58:37;12.20;93.10
16521;DHT22;8373;48.110;11.522;2023-05-13T06:01:04;12.20;92.90
16521;DHT22;8373;48.110;11.522;2023-05-13T06:03:31;12.20;92.70
16521;DHT22;8373;48.110;11.522;2023-05-13T06:05:58;12.20;92.70
16521;DHT22;8373;48.110;11.522;2023-05-13T06:08:25;12.10;92.70
16521;DHT22;8373;48.110;11.522;2023-05-13T06:10:55;12.10;92.80
16521;DHT22;8373;48.110;11.522;2023-05-13T06:13:22;12.20;93.00
16521;DHT22;8373;48.110;11.522;2023-05-13T06:15:51;12.20;93.00
16521;DHT22;8373;48.110;11.522;2023-05-13T06:18:18;12.20;93.00
16521;DHT22;8373;48.110;11.522;2023-05-13T06:20:45;12.20;92.90
16521;DHT22;8373;48.110;11.522;2023-05-13T06:23:12;12.20;92.90
16521;DHT22;8373;48.110;11.522;2023-05-13T06:25:40;12.30;92.90
16521;DHT22;8373;48.110;11.522;2023-05-13T06:28:07;12.20;92.70
16521;DHT22;8373;48.110;11.522;2023-05-13T06:30:34;12.20;92.70
16521;DHT22;8373;48.110;11.522;2023-05-13T06:33:03;12.10;92.70
16521;DHT22;8373;48.110;11.522;2023-05-13T06:35:30;12.10;92.90
16521;DHT22;8373;48.110;11.522;2023-05-13T06:37:57;12.20;93.20
16521;DHT22;8373;48.110;11.522;2023-05-13T06:40:24;12.20;93.10
16521;DHT22;8373;48.110;11.522;2023-05-13T06:42:51;12.20;93.10
16521;DHT22;8373;48.110;11.522;2023-05-13T06:45:18;12.30;93.00
16521;DHT22;8373;48.110;11.522;2023-05-13T06:47:48;12.30;92.90
16521;DHT22;8373;48.110;11.522;2023-05-13T06:50:16;12.30;92.90
16521;DHT22;8373;48.110;11.522;2023-05-13T06:52:43;12.30;92.90
16521;DHT22;8373;48.110;11.522;2023-05-13T06:55:13;12.30;92.90
16521;DHT22;8373;48.110;11.522;2023-05-13T06:57:41;12.30;92.80
16521;DHT22;8373;48.110;11.522;2023-05-13T07:00:12;12.20;92.90
16521;DHT22;8373;48.110;11.522;2023-05-13T07:02:39;12.30;93.00
16521;DHT22;8373;48.110;11.522;2023-05-13T07:05:07;12.40;92.80
16521;DHT22;8373;48.110;11.522;2023-05-13T07:07:35;12.40;92.70
16521;DHT22;8373;48.110;11.522;2023-05-13T07:10:02;12.40;92.70
16521;DHT22;8373;48.110;11.522;2023-05-13T07:12:29;12.40;92.70
16521;DHT22;8373;48.110;11.522;2023-05-13T07:14:57;12.40;92.60
16521;DHT22;8373;48.110;11.522;2023-05-13T07:17:24;12.50;92.50
16521;DHT22;8373;48.110;11.522;2023-05-13T07:19:51;12.50;92.50
16521;DHT22;8373;48.110;11.522;2023-05-13T07:22:17;12.50;92.40
16521;DHT22;8373;48.110;11.522;2023-05-13T07:24:46;12.50;92.20
16521;DHT22;8373;48.110;11.522;2023-05-13T07:27:13;12.50;92.10
16521;DHT22;8373;48.110;11.522;2023-05-13T07:29:40;12.40;92.10
16521;DHT22;8373;48.110;11.522;2023-05-13T07:32:07;12.40;92.20
16521;DHT22;8373;48.110;11.522;2023-05-13T07:34:34;12.40;92.10
16521;DHT22;8373;48.110;11.522;2023-05-13T07:37:01;12.40;92.30
16521;DHT22;8373;48.110;11.522;2023-05-13T07:39:29;12.30;92.20
16521;DHT22;8373;48.110;11.522;2023-05-13T07:41:57;12.30;92.30
16521;DHT22;8373;48.110;11.522;2023-05-13T07:44:24;12.30;92.40
16521;DHT22;8373;48.110;11.522;2023-05-13T07:46:51;12.20;92.30
16521;DHT22;8373;48.110;11.522;2023-05-13T07:49:18;12.20;92.40
16521;DHT22;8373;48.110;11.522;2023-05-13T07:51:45;12.20;92.70
16521;DHT22;8373;48.110;11.522;2023-05-13T07:54:12;12.20;92.70
16521;DHT22;8373;48.110;11.522;2023-05-13T07:56:39;12.20;92.80
16521;DHT22;8373;48.110;11.522;2023-05-13T07:59:10;12.20;93.00
16521;DHT22;8373;48.110;11.522;2023-05-13T08:01:37;12.30;92.90
16521;DHT22;8373;48.110;11.522;2023-05-13T08:04:04;12.30;92.90
16521;DHT22;8373;48.110;11.522;2023-05-13T08:06:30;12.30;92.60
16521;DHT22;8373;48.110;11.522;2023-05-13T08:08:57;12.30;92.60
16521;DHT22;8373;48.110;11.522;2023-05-13T08:11:24;12.40;92.60
16521;DHT22;8373;48.110;11.522;2023-05-13T08:13:51;12.30;92.50
16521;DHT22;8373;48.110;11.522;2023-05-13T08:16:20;12.40;92.60
16521;DHT22;8373;48.110;11.522;2023-05-13T08:18:47;12.40;92.60
16521;DHT22;8373;48.110;11.522;2023-05-13T08:21:14;12.50;92.50
16521;DHT22;8373;48.110;11.522;2023-05-13T08:23:40;12.50;92.40
16521;DHT22;8373;48.110;11.522;2023-05-13T08:26:07;12.50;92.30
16521;DHT22;8373;48.110;11.522;2023-05-13T08:28:34;12.60;92.00
16521;DHT22;8373;48.110;11.522;2023-05-13T08:31:02;12.50;91.90
16521;DHT22;8373;48.110;11.522;2023-05-13T08:33:31;12.50;91.90
16521;DHT22;8373;48.110;11.522;2023-05-13T08:35:59;12.50;91.90
16521;DHT22;8373;48.110;11.522;2023-05-13T08:38:26;12.50;91.90
16521;DHT22;8373;48.110;11.522;2023-05-13T08:40:53;12.50;91.90
16521;DHT22;8373;48.110;11.522;2023-05-13T08:43:23;12.50;92.00
16521;DHT22;8373;48.110;11.522;2023-05-13T08:45:50;12.50;91.90
16521;DHT22;8373;48.110;11.522;2023-05-13T08:48:19;12.60;92.00
16521;DHT22;8373;48.110;11.522;2023-05-13T08:50:47;12.70;91.90
16521;DHT22;8373;48.110;11.522;2023-05-13T08:53:16;12.70;91.80
16521;DHT22;8373;48.110;11.522;2023-05-13T08:55:43;12.70;91.60
16521;DHT22;8373;48.110;11.522;2023-05-13T08:58:10;12.70;91.50
16521;DHT22;8373;48.110;11.522;2023-05-13T09:00:38;12.70;91.40
16521;DHT22;8373;48.110;11.522;2023-05-13T09:03:05;12.70;91.50
16521;DHT22;8373;48.110;11.522;2023-05-13T09:05:33;12.70;91.70
16521;DHT22;8373;48.110;11.522;2023-05-13T09:08:05;12.70;91.90
16521;DHT22;8373;48.110;11.522;2023-05-13T09:10:33;12.60;91.80
16521;DHT22;8373;48.110;11.522;2023-05-13T09:13:00;12.80;92.90
16521;DHT22;8373;48.110;11.522;2023-05-13T09:15:27;13.00;93.80
16521;DHT22;8373;48.110;11.522;2023-05-13T09:17:57;12.90;92.70
16521;DHT22;8373;48.110;11.522;2023-05-13T09:20:24;13.10;93.10
16521;DHT22;8373;48.110;11.522;2023-05-13T09:22:52;13.10;93.20
16521;DHT22;8373;48.110;11.522;2023-05-13T09:25:21;13.20;93.10
16521;DHT22;8373;48.110;11.522;2023-05-13T09:27:51;13.40;93.20
16521;DHT22;8373;48.110;11.522;2023-05-13T09:30:20;13.40;92.80
16521;DHT22;8373;48.110;11.522;2023-05-13T09:33:04;13.40;92.60
16521;DHT22;8373;48.110;11.522;2023-05-13T09:35:32;13.50;92.80
16521;DHT22;8373;48.110;11.522;2023-05-13T09:37:59;13.60;92.70
16521;DHT22;8373;48.110;11.522;2023-05-13T09:40:27;13.70;92.70
16521;DHT22;8373;48.110;11.522;2023-05-13T09:42:56;13.70;92.40
16521;DHT22;8373;48.110;11.522;2023-05-13T09:45:25;13.70;91.80
16521;DHT22;8373;48.110;11.522;2023-05-13T09:47:53;13.70;92.10
16521;DHT22;8373;48.110;11.522;2023-05-13T09:50:21;13.80;92.20
16521;DHT22;8373;48.110;11.522;2023-05-13T09:52:48;13.80;92.10
16521;DHT22;8373;48.110;11.522;2023-05-13T09:55:16;13.90;92.10
16521;DHT22;8373;48.110;11.522;2023-05-13T09:57:44;14.00;91.90
16521;DHT22;8373;48.110;11.522;2023-05-13T10:00:12;14.00;91.80
16521;DHT22;8373;48.110;11.522;2023-05-13T10:02:39;14.10;91.60
16521;DHT22;8373;48.110;11.522;2023-05-13T10:05:08;14.10;90.80
16521;DHT22;8373;48.110;11.522;2023-05-13T10:07:36;14.00;90.10
16521;DHT22;8373;48.110;11.522;2023-05-13T10:10:06;14.00;90.10
16521;DHT22;8373;48.110;11.522;2023-05-13T10:12:35;14.10;90.30
16521;DHT22;8373;48.110;11.522;2023-05-13T10:15:07;14.10;90.20
16521;DHT22;8373;48.110;11.522;2023-05-13T10:17:35;14.10;89.40
16521;DHT22;8373;48.110;11.522;2023-05-13T10:20:04;14.10;88.90
16521;DHT22;8373;48.110;11.522;2023-05-13T10:22:32;14.00;88.00
16521;DHT22;8373;48.110;11.522;2023-05-13T10:25:00;14.00;88.00
16521;DHT22;8373;48.110;11.522;2023-05-13T10:31:04;13.90;88.50
16521;DHT22;8373;48.110;11.522;2023-05-13T10:33:31;13.80;88.40
16521;DHT22;8373;48.110;11.522;2023-05-13T10:36:21;13.70;88.90
16521;DHT22;8373;48.110;11.522;2023-05-13T10:39:05;13.70;89.30
16521;DHT22;8373;48.110;11.522;2023-05-13T10:44:53;13.60;89.10
16521;DHT22;8373;48.110;11.522;2023-05-13T10:47:22;13.60;89.20
16521;DHT22;8373;48.110;11.522;2023-05-13T10:49:50;13.70;89.50
16521;DHT22;8373;48.110;11.522;2023-05-13T10:52:18;13.70;89.20
16521;DHT22;8373;48.110;11.522;2023-05-13T10:55:00;13.70;88.50
16521;DHT22;8373;48.110;11.522;2023-05-13T10:57:28;13.70;88.20
16521;DHT22;8373;48.110;11.522;2023-05-13T11:00:14;13.70;88.10
16521;DHT22;8373;48.110;11.522;2023-05-13T11:02:44;13.80;88.30
16521;DHT22;8373;48.110;11.522;2023-05-13T11:05:18;13.90;88.20
16521;DHT22;8373;48.110;11.522;2023-05-13T11:07:54;14.00;87.40
16521;DHT22;8373;48.110;11.522;2023-05-13T11:10:25;14.10;87.20
16521;DHT22;8373;48.110;11.522;2023-05-13T11:13:22;14.20;87.10
16521;DHT22;8373;48.110;11.522;2023-05-13T11:15:50;14.20;86.40
16521;DHT22;8373;48.110;11.522;2023-05-13T11:18:19;14.20;86.30
16521;DHT22;8373;48.110;11.522;2023-05-13T11:23:19;14.20;85.70
16521;DHT22;8373;48.110;11.522;2023-05-13T11:25:46;14.20;84.60
16521;DHT22;8373;48.110;11.522;2023-05-13T11:28:58;14.10;84.20
16521;DHT22;8373;48.110;11.522;2023-05-13T11:31:26;14.00;84.80
16521;DHT22;8373;48.110;11.522;2023-05-13T11:34:12;13.90;85.20
16521;DHT22;8373;48.110;11.522;2023-05-13T11:36:40;13.90;85.40
16521;DHT22;8373;48.110;11.522;2023-05-13T11:39:09;13.90;86.50
16521;DHT22;8373;48.110;11.522;2023-05-13T11:41:38;14.10;88.60
16521;DHT22;8373;48.110;11.522;2023-05-13T11:44:06;14.20;89.40
16521;DHT22;8373;48.110;11.522;2023-05-13T11:46:33;14.30;88.80
16521;DHT22;8373;48.110;11.522;2023-05-13T11:49:00;14.40;88.20
16521;DHT22;8373;48.110;11.522;2023-05-13T11:51:29;14.40;87.60
16521;DHT22;8373;48.110;11.522;2023-05-13T11:54:00;14.40;86.10
16521;DHT22;8373;48.110;11.522;2023-05-13T11:56:27;14.40;85.70
16521;DHT22;8373;48.110;11.522;2023-05-13T11:59:11;14.40;85.40
16521;DHT22;8373;48.110;11.522;2023-05-13T12:01:38;14.40;85.30
16521;DHT22;8373;48.110;11.522;2023-05-13T12:04:05;14.40;85.20
16521;DHT22;8373;48.110;11.522;2023-05-13T12:06:41;14.40;85.60
16521;DHT22;8373;48.110;11.522;2023-05-13T12:09:10;14.40;84.80
16521;DHT22;8373;48.110;11.522;2023-05-13T12:11:38;14.40;84.40
16521;DHT22;8373;48.110;11.522;2023-05-13T12:14:05;14.30;84.30
16521;DHT22;8373;48.110;11.522;2023-05-13T12:16:32;14.30;84.40
16521;DHT22;8373;48.110;11.522;2023-05-13T12:19:03;14.30;84.30
16521;DHT22;8373;48.110;11.522;2023-05-13T12:21:30;14.40;84.80
16521;DHT22;8373;48.110;11.522;2023-05-13T12:23:59;14.40;85.40
16521;DHT22;8373;48.110;11.522;2023-05-13T12:26:26;14.50;85.00
16521;DHT22;8373;48.110;11.522;2023-05-13T12:28:57;14.50;84.10
16521;DHT22;8373;48.110;11.522;2023-05-13T12:31:26;14.60;84.30
16521;DHT22;8373;48.110;11.522;2023-05-13T12:33:53;14.60;84.30
16521;DHT22;8373;48.110;11.522;2023-05-13T12:36:21;14.70;84.00
16521;DHT22;8373;48.110;11.522;2023-05-13T12:38:54;14.70;83.40
16521;DHT22;8373;48.110;11.522;2023-05-13T12:41:23;14.70;82.80
16521;DHT22;8373;48.110;11.522;2023-05-13T12:43:54;14.70;82.30
16521;DHT22;8373;48.110;11.522;2023-05-13T12:46:21;14.70;82.20
16521;DHT22;8373;48.110;11.522;2023-05-13T12:48:47;14.70;82.20
16521;DHT22;8373;48.110;11.522;2023-05-13T12:51:17;14.80;82.20
16521;DHT22;8373;48.110;11.522;2023-05-13T12:53:44;14.80;82.10
16521;DHT22;8373;48.110;11.522;2023-05-13T12:56:11;14.70;81.50
16521;DHT22;8373;48.110;11.522;2023-05-13T12:58:39;14.70;81.90
16521;DHT22;8373;48.110;11.522;2023-05-13T13:01:06;14.70;82.00
16521;DHT22;8373;48.110;11.522;2023-05-13T13:03:33;14.80;81.90
16521;DHT22;8373;48.110;11.522;2023-05-13T13:06:00;14.80;81.70
16521;DHT22;8373;48.110;11.522;2023-05-13T13:08:27;14.80;81.30
16521;DHT22;8373;48.110;11.522;2023-05-13T13:10:55;14.70;80.50
16521;DHT22;8373;48.110;11.522;2023-05-13T13:13:22;14.70;80.70
16521;DHT22;8373;48.110;11.522;2023-05-13T13:15:50;14.70;80.90
16521;DHT22;8373;48.110;11.522;2023-05-13T13:18:17;14.70;81.10
16521;DHT22;8373;48.110;11.522;2023-05-13T13:20:44;14.70;82.20
16521;DHT22;8373;48.110;11.522;2023-05-13T13:23:11;14.70;81.20
16521;DHT22;8373;48.110;11.522;2023-05-13T13:25:38;14.70;81.20
16521;DHT22;8373;48.110;11.522;2023-05-13T13:28:05;14.70;81.50
16521;DHT22;8373;48.110;11.522;2023-05-13T13:30:32;14.70;81.80
16521;DHT22;8373;48.110;11.522;2023-05-13T13:33:01;14.70;81.90
16521;DHT22;8373;48.110;11.522;2023-05-13T13:35:28;14.70;82.00
16521;DHT22;8373;48.110;11.522;2023-05-13T13:37:54;14.70;81.50
16521;DHT22;8373;48.110;11.522;2023-05-13T13:40:22;14.70;81.70
16521;DHT22;8373;48.110;11.522;2023-05-13T13:42:48;14.70;82.00
16521;DHT22;8373;48.110;11.522;2023-05-13T13:45:15;14.70;82.10
16521;DHT22;8373;48.110;11.522;2023-05-13T13:47:42;14.70;82.30
16521;DHT22;8373;48.110;11.522;2023-05-13T13:50:11;14.70;82.40
16521;DHT22;8373;48.110;11.522;2023-05-13T13:52:38;14.70;81.90
16521;DHT22;8373;48.110;11.522;2023-05-13T13:55:06;14.70;82.00
16521;DHT22;8373;48.110;11.522;2023-05-13T13:57:33;14.70;82.00
16521;DHT22;8373;48.110;11.522;2023-05-13T14:00:00;14.70;81.90
16521;DHT22;8373;48.110;11.522;2023-05-13T14:02:26;14.80;82.10
16521;DHT22;8373;48.110;11.522;2023-05-13T14:04:53;14.80;82.20
16521;DHT22;8373;48.110;11.522;2023-05-13T14:07:22;14.90;82.40
16521;DHT22;8373;48.110;11.522;2023-05-13T14:09:49;15.00;82.30
16521;DHT22;8373;48.110;11.522;2023-05-13T14:12:17;15.10;83.20
16521;DHT22;8373;48.110;11.522;2023-05-13T14:14:44;15.30;82.90
16521;DHT22;8373;48.110;11.522;2023-05-13T14:17:11;15.50;82.30
16521;DHT22;8373;48.110;11.522;2023-05-13T14:19:38;15.60;81.50
16521;DHT22;8373;48.110;11.522;2023-05-13T14:22:04;15.70;80.90
16521;DHT22;8373;48.110;11.522;2023-05-13T14:24:33;15.90;80.80
16521;DHT22;8373;48.110;11.522;2023-05-13T14:27:00;16.00;79.80
16521;DHT22;8373;48.110;11.522;2023-05-13T14:29:27;16.10;78.90
16521;DHT22;8373;48.110;11.522;2023-05-13T14:31:54;16.20;77.80
16521;DHT22;8373;48.110;11.522;2023-05-13T14:34:21;16.30;77.10
16521;DHT22;8373;48.110;11.522;2023-05-13T14:36:50;16.30;78.00
16521;DHT22;8373;48.110;11.522;2023-05-13T14:39:16;16.50;76.90
16521;DHT22;8373;48.110;11.522;2023-05-13T14:41:45;16.60;76.50
16521;DHT22;8373;48.110;11.522;2023-05-13T14:44:12;16.60;75.90
16521;DHT22;8373;48.110;11.522;2023-05-13T14:46:39;16.70;74.90
16521;DHT22;8373;48.110;11.522;2023-05-13T14:49:06;16.80;74.50
16521;DHT22;8373;48.110;11.522;2023-05-13T14:51:33;16.70;73.80
16521;DHT22;8373;48.110;11.522;2023-05-13T14:54:01;16.80;74.10
16521;DHT22;8373;48.110;11.522;2023-05-13T14:56:28;16.90;73.80
16521;DHT22;8373;48.110;11.522;2023-05-13T14:58:56;16.90;73.60
16521;DHT22;8373;48.110;11.522;2023-05-13T15:01:23;16.90;73.30
16521;DHT22;8373;48.110;11.522;2023-05-13T15:03:50;17.00;74.00
16521;DHT22;8373;48.110;11.522;2023-05-13T15:06:17;17.10;74.30
16521;DHT22;8373;48.110;11.522;2023-05-13T15:08:44;17.10;74.00
16521;DHT22;8373;48.110;11.522;2023-05-13T15:11:11;17.10;73.60
16521;DHT22;8373;48.110;11.522;2023-05-13T15:13:38;17.20;73.20
16521;DHT22;8373;48.110;11.522;2023-05-13T15:16:07;17.10;72.70
16521;DHT22;8373;48.110;11.522;2023-05-13T15:18:33;17.00;72.50
16521;DHT22;8373;48.110;11.522;2023-05-13T15:21:00;16.90;73.20
16521;DHT22;8373;48.110;11.522;2023-05-13T15:23:27;16.90;73.90
16521;DHT22;8373;48.110;11.522;2023-05-13T15:25:54;17.00;74.20
16521;DHT22;8373;48.110;11.522;2023-05-13T15:28:21;17.00;74.50
16521;DHT22;8373;48.110;11.522;2023-05-13T15:30:48;17.00;74.50
16521;DHT22;8373;48.110;11.522;2023-05-13T15:33:16;17.10;74.40
16521;DHT22;8373;48.110;11.522;2023-05-13T15:35:43;17.10;74.50
16521;DHT22;8373;48.110;11.522;2023-05-13T15:38:10;17.10;74.30
16521;DHT22;8373;48.110;11.522;2023-05-13T15:40:37;17.10;74.20
16521;DHT22;8373;48.110;11.522;2023-05-13T15:43:04;17.00;74.00
16521;DHT22;8373;48.110;11.522;2023-05-13T15:45:31;17.00;73.80